Archival Weather

Vermilion Rgnl

Danville, Illinois (KDNV)

Report from: Saturday, April 13, 2024 8:15 PM CDT
Current time: Sunday, July 14, 2024 4:52 AM CDT

Current weather – Weather history – Daily summaries
Weather forecast

Temperature16.9°C (62.4°F)
Dew point6.4°C (43.5°F)
Winds 11 kts (5.7 m/s, 12.7 mph) South (190°)
Visibility10 mi. (16.1 km)
Clouds Sky clear
Altimeter29.97 in.Hg (1015 mB)
Relative humidity50 %
Density altitude308 ft. (94 m)
Remarks Fully automated report
Automated weather observing station with precipitation discriminator
Flight conditions Visual Meteorological Conditions
Raw dataKDNV 140115Z AUTO 19011KT 10SM CLR 17/06 A2997 RMK AO2 T01690064
An error has occurred. This application may no longer respond until reloaded. Reload 🗙